Time;durP1;ratioP1;P1;durP2;ratioP2;P2;SDS_P1;SDS_P2;PMS_P1;PMS_P2;Temp;Humidity;BMP_temperature;BMP_pressure;BME280_temperature;BME280_humidity;BME280_pressure;Samples;Min_cycle;Max_cycle;Signal;HPM_P1;HPM_P2
2023/03/11 00:01:11;;;;;;;18.67;13.10;;;;;;;-0.02;100.00;99167.09;4952641;28;20219;-80
2023/03/11 00:03:37;;;;;;;18.30;13.10;;;;;;;-0.03;100.00;99177.63;4952458;28;20242;-80
2023/03/11 00:06:06;;;;;;;16.63;12.23;;;;;;;-0.03;100.00;99183.72;4946952;28;20240;-80
2023/03/11 00:08:33;;;;;;;16.30;10.93;;;;;;;0.00;100.00;99191.41;4951290;28;20594;-81
2023/03/11 00:11:00;;;;;;;16.73;11.77;;;;;;;-0.03;100.00;99199.41;4951346;28;20212;-80
2023/03/11 00:13:28;;;;;;;15.47;10.87;;;;;;;-0.01;100.00;99202.81;4955650;28;20224;-80
2023/03/11 00:15:56;;;;;;;14.77;10.10;;;;;;;-0.02;100.00;99208.13;4946881;28;20202;-80
2023/03/11 00:18:25;;;;;;;13.13;9.63;;;;;;;-0.04;100.00;99216.03;4952589;28;20252;-81
2023/03/11 00:20:53;;;;;;;11.27;8.47;;;;;;;-0.03;100.00;99212.50;4956262;28;20299;-81
2023/03/11 00:23:21;;;;;;;11.33;8.53;;;;;;;-0.04;100.00;99223.88;4950122;28;20587;-82
2023/03/11 00:25:48;;;;;;;12.37;8.70;;;;;;;-0.03;100.00;99236.06;4953985;28;20235;-80
2023/03/11 00:28:15;;;;;;;11.53;8.23;;;;;;;-0.01;100.00;99236.84;4957366;28;20217;-82
2023/03/11 00:30:44;;;;;;;10.50;7.80;;;;;;;-0.03;100.00;99246.53;4950986;28;20201;-81
2023/03/11 00:33:13;;;;;;;10.67;6.93;;;;;;;-0.01;100.00;99251.69;4956259;28;20224;-82
2023/03/11 00:35:41;;;;;;;8.67;6.63;;;;;;;-0.01;100.00;99260.41;4956866;28;20202;-82
2023/03/11 00:38:09;;;;;;;9.67;7.57;;;;;;;-0.01;100.00;99262.16;4956805;28;20239;-82
2023/03/11 00:40:36;;;;;;;9.60;7.27;;;;;;;-0.01;100.00;99270.03;4955240;28;20674;-81
2023/03/11 00:43:03;;;;;;;11.47;8.03;;;;;;;-0.02;100.00;99279.63;4956387;28;20217;-80
2023/03/11 00:45:31;;;;;;;10.53;8.20;;;;;;;-0.01;100.00;99272.63;4952990;28;20228;-81
2023/03/11 00:47:57;;;;;;;11.80;8.43;;;;;;;0.02;100.00;99289.94;4950854;28;20237;-81
2023/03/11 00:50:26;;;;;;;10.40;7.57;;;;;;;0.00;100.00;99288.25;4962490;28;20266;-82
2023/03/11 00:52:53;;;;;;;8.33;6.50;;;;;;;0.00;100.00;99292.66;4960134;28;20208;-81
2023/03/11 00:55:22;;;;;;;11.70;8.20;;;;;;;-0.01;100.00;99302.28;4956357;28;20212;-81
2023/03/11 00:57:53;;;;;;;8.57;5.47;;;;;;;0.00;100.00;99301.34;4951529;28;20239;-81
2023/03/11 01:00:22;;;;;;;7.77;6.37;;;;;;;-0.03;100.00;99309.34;4947612;28;20206;-82
2023/03/11 01:02:48;;;;;;;9.23;6.63;;;;;;;-0.06;100.00;99301.59;4946276;28;20670;-82
2023/03/11 01:05:15;;;;;;;8.50;6.20;;;;;;;-0.05;100.00;99315.53;4951265;28;20233;-82
2023/03/11 01:07:42;;;;;;;9.90;7.20;;;;;;;-0.05;100.00;99315.53;4944769;28;20229;-81
2023/03/11 01:10:10;;;;;;;9.43;6.47;;;;;;;-0.04;100.00;99323.34;4940219;28;20218;-80
2023/03/11 01:12:36;;;;;;;11.43;7.27;;;;;;;-0.04;100.00;99331.19;4954641;28;20209;-82
2023/03/11 01:15:06;;;;;;;11.50;6.77;;;;;;;-0.04;100.00;99328.56;4955429;28;20201;-82
2023/03/11 01:17:33;;;;;;;10.13;6.57;;;;;;;-0.03;100.00;99347.75;4955276;28;20730;-83
2023/03/11 01:19:59;;;;;;;6.77;4.60;;;;;;;-0.02;100.00;99347.69;4956820;28;20224;-81
2023/03/11 01:22:26;;;;;;;7.50;5.10;;;;;;;-0.03;100.00;99352.97;4961465;28;20219;-81
2023/03/11 01:24:52;;;;;;;5.43;3.70;;;;;;;-0.05;100.00;99352.19;4955444;28;20229;-81
2023/03/11 01:27:19;;;;;;;5.40;3.80;;;;;;;-0.08;100.00;99366.25;4960003;28;20589;-81
2023/03/11 01:29:45;;;;;;;3.40;2.97;;;;;;;-0.14;100.00;99363.00;4953740;28;20216;-81
2023/03/11 01:32:13;;;;;;;3.97;2.90;;;;;;;-0.17;100.00;99363.97;4955327;28;20212;-82
2023/03/11 01:34:39;;;;;;;3.50;2.90;;;;;;;-0.21;100.00;99372.88;4956132;28;20216;-81
2023/03/11 01:37:06;;;;;;;3.27;2.90;;;;;;;-0.19;100.00;99372.84;4956597;28;20221;-81
2023/03/11 01:39:32;;;;;;;3.70;2.63;;;;;;;-0.21;100.00;99385.97;4953430;28;20236;-80
2023/03/11 01:41:59;;;;;;;4.30;2.97;;;;;;;-0.18;100.00;99391.06;4955293;28;20201;-81
2023/03/11 01:44:25;;;;;;;6.13;2.97;;;;;;;-0.16;100.00;99394.47;4956222;28;20201;-83
2023/03/11 01:47:29;;;;;;;4.27;3.20;;;;;;;-0.15;100.00;99393.56;4950730;29;20236;-81
2023/03/11 01:49:57;;;;;;;5.53;3.10;;;;;;;-0.13;100.00;99396.13;4954109;28;20208;-81
2023/03/11 01:52:23;;;;;;;5.77;3.20;;;;;;;-0.12;100.00;99408.28;4949839;28;20201;-83
2023/03/11 01:54:50;;;;;;;5.60;3.27;;;;;;;-0.12;100.00;99411.75;4952318;28;20201;-83
2023/03/11 01:57:17;;;;;;;5.83;4.17;;;;;;;-0.11;100.00;99415.22;4952202;28;20951;-81
2023/03/11 01:59:48;;;;;;;5.87;3.87;;;;;;;-0.12;100.00;99432.69;4955756;28;20339;-83
2023/03/11 02:02:19;;;;;;;3.77;3.30;;;;;;;-0.09;100.00;99424.72;4948128;28;20201;-82
2023/03/11 02:04:47;;;;;;;4.93;4.07;;;;;;;-0.13;100.00;99436.22;4943528;28;20209;-81
2023/03/11 02:07:15;;;;;;;5.90;3.97;;;;;;;-0.11;100.00;99438.78;4946487;28;20235;-81
2023/03/11 02:09:42;;;;;;;6.57;4.13;;;;;;;-0.11;100.00;99437.03;4952017;28;20201;-81
2023/03/11 02:12:11;;;;;;;5.57;4.20;;;;;;;-0.10;100.00;99441.34;4954690;28;20699;-81
2023/03/11 02:14:42;;;;;;;5.03;3.30;;;;;;;-0.07;100.00;99453.47;4953227;28;20688;-81
2023/03/11 02:17:08;;;;;;;6.27;3.70;;;;;;;-0.09;100.00;99450.03;4947894;28;20442;-80
2023/03/11 02:19:45;;;;;;;4.87;3.80;;;;;;;-0.07;100.00;99451.69;4955194;28;20220;-81
2023/03/11 02:22:13;;;;;;;5.07;3.47;;;;;;;-0.07;100.00;99458.69;4950839;28;20212;-80
2023/03/11 02:24:46;;;;;;;4.97;2.83;;;;;;;-0.10;100.00;99467.50;4953544;28;20208;-82
2023/03/11 02:27:17;;;;;;;7.80;4.00;;;;;;;-0.08;100.00;99459.59;4948472;28;20244;-81
2023/03/11 02:29:48;;;;;;;4.53;3.00;;;;;;;-0.10;100.00;99474.50;4955064;28;20201;-80
2023/03/11 02:32:15;;;;;;;6.03;3.53;;;;;;;-0.10;100.00;99475.38;4953560;28;20216;-81
2023/03/11 02:34:42;;;;;;;6.47;3.40;;;;;;;-0.09;100.00;99490.16;4954004;28;20202;-81
2023/03/11 02:37:11;;;;;;;5.60;3.67;;;;;;;-0.11;100.00;99478.88;4947633;28;20248;-81
2023/03/11 02:39:40;;;;;;;6.50;3.97;;;;;;;-0.11;100.00;99483.28;4952293;28;20225;-81
2023/03/11 02:42:12;;;;;;;6.80;3.87;;;;;;;-0.13;100.00;99488.56;4951276;28;20583;-81
2023/03/11 02:44:43;;;;;;;6.97;3.60;;;;;;;-0.14;100.00;99494.69;4952254;28;20205;-82
2023/03/11 02:47:11;;;;;;;7.77;3.77;;;;;;;-0.11;100.00;99504.22;4959499;28;20231;-82
2023/03/11 02:49:37;;;;;;;7.73;3.63;;;;;;;-0.11;100.00;99499.81;4953563;28;20206;-81
2023/03/11 02:52:04;;;;;;;5.60;3.23;;;;;;;-0.10;100.00;99503.28;4960368;28;20637;-81
2023/03/11 02:54:31;;;;;;;4.50;3.43;;;;;;;-0.09;100.00;99505.00;4951217;29;20219;-82
2023/03/11 02:56:57;;;;;;;4.57;2.83;;;;;;;-0.13;100.00;99512.13;4952953;28;20229;-82
2023/03/11 02:59:24;;;;;;;4.73;3.57;;;;;;;-0.13;100.00;99509.50;4947788;28;20237;-83
2023/03/11 03:01:52;;;;;;;4.03;3.17;;;;;;;-0.14;100.00;99515.63;4956335;28;20216;-82
2023/03/11 03:04:18;;;;;;;4.70;2.90;;;;;;;-0.14;100.00;99520.88;4957355;28;20216;-82
2023/03/11 03:06:45;;;;;;;4.67;2.90;;;;;;;-0.16;100.00;99520.06;4956091;28;20718;-82
2023/03/11 03:09:11;;;;;;;5.10;2.93;;;;;;;-0.16;100.00;99516.59;4957153;28;20216;-82
2023/03/11 03:11:38;;;;;;;4.40;2.93;;;;;;;-0.16;100.00;99521.84;4957948;28;20682;-82
2023/03/11 03:14:04;;;;;;;3.70;2.80;;;;;;;-0.13;100.00;99533.03;4958699;28;20218;-82
2023/03/11 03:16:31;;;;;;;7.73;3.43;;;;;;;-0.15;100.00;99527.00;4956355;28;20621;-82
2023/03/11 03:18:59;;;;;;;4.83;3.53;;;;;;;-0.16;100.00;99529.69;4955657;28;20209;-80
2023/03/11 03:21:25;;;;;;;3.83;3.20;;;;;;;-0.17;100.00;99539.28;4954139;28;20694;-82
2023/03/11 03:23:52;;;;;;;4.43;2.87;;;;;;;-0.19;100.00;99545.53;4949750;28;20209;-82
2023/03/11 03:26:18;;;;;;;5.53;3.40;;;;;;;-0.23;100.00;99557.88;4953818;28;20236;-82
2023/03/11 03:28:45;;;;;;;4.20;2.80;;;;;;;-0.21;100.00;99560.44;4949910;28;20467;-82
2023/03/11 03:31:12;;;;;;;5.10;2.97;;;;;;;-0.22;100.00;99563.94;4951548;28;20216;-83
2023/03/11 03:33:38;;;;;;;7.33;3.53;;;;;;;-0.22;100.00;99566.56;4954595;28;20201;-81
2023/03/11 03:36:08;;;;;;;3.17;2.60;;;;;;;-0.24;100.00;99573.63;4955273;28;20208;-82
2023/03/11 03:38:34;;;;;;;2.87;2.57;;;;;;;-0.25;100.00;99578.00;4955093;28;20213;-82
2023/03/11 03:41:01;;;;;;;5.80;2.80;;;;;;;-0.23;100.00;99577.94;4955087;28;20212;-81
2023/03/11 03:43:27;;;;;;;3.80;2.97;;;;;;;-0.23;100.00;99583.19;4952700;29;20706;-81
2023/03/11 03:45:58;;;;;;;6.83;3.40;;;;;;;-0.23;100.00;99585.78;4955630;28;20316;-81
2023/03/11 03:48:24;;;;;;;5.23;2.83;;;;;;;-0.23;100.00;99586.66;4955329;28;20606;-81
2023/03/11 03:50:51;;;;;;;4.40;3.17;;;;;;;-0.21;100.00;99591.81;4955803;28;20572;-81
2023/03/11 03:53:19;;;;;;;7.43;2.50;;;;;;;-0.23;100.00;99588.41;4952639;28;20201;-82
2023/03/11 03:55:45;;;;;;;6.50;2.57;;;;;;;-0.27;100.00;99587.66;4957443;28;20209;-81
2023/03/11 03:58:12;;;;;;;4.17;2.60;;;;;;;-0.26;100.00;99602.44;4958844;28;20220;-82
2023/03/11 04:00:38;;;;;;;5.13;2.90;;;;;;;-0.30;100.00;99606.06;4955748;28;20204;-81
2023/03/11 04:03:05;;;;;;;5.77;2.97;;;;;;;-0.31;100.00;99608.75;4954236;28;20599;-80
2023/03/11 04:05:32;;;;;;;3.97;2.43;;;;;;;-0.33;100.00;99610.56;4948028;28;20225;-81
2023/03/11 04:07:59;;;;;;;7.33;2.10;;;;;;;-0.34;100.00;99609.69;4953095;28;20232;-82
2023/03/11 04:10:27;;;;;;;3.53;2.20;;;;;;;-0.36;100.00;99624.63;4960556;28;20279;-82
2023/03/11 04:12:53;;;;;;;5.60;2.70;;;;;;;-0.33;100.00;99624.50;4959882;28;20680;-82
2023/03/11 04:15:20;;;;;;;5.40;2.70;;;;;;;-0.33;100.00;99629.72;4961387;28;20224;-81
2023/03/11 04:17:46;;;;;;;4.10;2.50;;;;;;;-0.33;100.00;99634.97;4957614;28;20229;-82
2023/03/11 04:20:13;;;;;;;6.77;2.70;;;;;;;-0.31;100.00;99634.91;4954721;28;20576;-82
2023/03/11 04:22:39;;;;;;;5.03;2.53;;;;;;;-0.32;100.00;99636.66;4959061;28;20689;-82
2023/03/11 04:25:07;;;;;;;3.27;2.00;;;;;;;-0.30;100.00;99647.94;4959458;28;20215;-82
2023/03/11 04:27:37;;;;;;;4.07;2.47;;;;;;;-0.31;100.00;99654.06;4956422;28;20730;-81
2023/03/11 04:30:05;;;;;;;7.20;2.37;;;;;;;-0.31;100.00;99642.75;4957171;28;20215;-82
2023/03/11 04:32:31;;;;;;;4.83;2.07;;;;;;;-0.31;100.00;99638.38;4955742;28;20256;-82
2023/03/11 04:34:57;;;;;;;5.50;2.60;;;;;;;-0.31;100.00;99645.38;4952262;28;20213;-81
2023/03/11 04:37:27;;;;;;;4.23;2.30;;;;;;;-0.32;100.00;99652.38;4952784;28;20220;-82
2023/03/11 04:39:54;;;;;;;3.47;2.30;;;;;;;-0.33;100.00;99666.34;4956233;28;20596;-82
2023/03/11 04:42:20;;;;;;;5.00;2.07;;;;;;;-0.35;100.00;99665.53;4957951;28;20208;-82
2023/03/11 04:44:48;;;;;;;8.90;2.20;;;;;;;-0.36;100.00;99667.31;4958225;28;20208;-81
2023/03/11 04:47:14;;;;;;;6.40;2.20;;;;;;;-0.37;100.00;99673.47;4958072;28;20229;-82
2023/03/11 04:49:41;;;;;;;3.40;2.17;;;;;;;-0.36;100.00;99664.69;4954423;28;21098;-82
2023/03/11 04:52:07;;;;;;;5.13;2.33;;;;;;;-0.35;100.00;99678.63;4955607;28;20352;-82
2023/03/11 04:54:34;;;;;;;5.93;2.37;;;;;;;-0.35;100.00;99678.63;4946591;28;20217;-81
2023/03/11 04:57:00;;;;;;;3.27;2.03;;;;;;;-0.33;100.00;99678.56;4950304;28;20240;-81
2023/03/11 04:59:27;;;;;;;3.60;2.10;;;;;;;-0.34;100.00;99690.81;4954931;28;20209;-82
2023/03/11 05:01:54;;;;;;;5.47;1.87;;;;;;;-0.35;100.00;99694.31;4958915;28;20212;-81
2023/03/11 05:04:21;;;;;;;4.53;2.30;;;;;;;-0.35;100.00;99700.41;4953204;28;20221;-81
2023/03/11 05:06:49;;;;;;;8.03;2.10;;;;;;;-0.39;100.00;99700.59;4952066;29;20229;-80
2023/03/11 05:09:16;;;;;;;5.87;2.23;;;;;;;-0.40;100.00;99704.13;4956772;28;20296;-82
2023/03/11 05:11:43;;;;;;;4.60;1.50;;;;;;;-0.41;100.00;99712.88;4951649;28;20205;-81
2023/03/11 05:14:09;;;;;;;4.93;1.67;;;;;;;-0.45;100.00;99712.09;4964734;28;20209;-81
2023/03/11 05:16:35;;;;;;;7.40;1.67;;;;;;;-0.46;100.00;99722.63;4957680;28;20236;-82
2023/03/11 05:19:29;;;;;;;3.07;1.70;;;;;;;-0.50;100.00;99728.84;4954241;28;20220;-80
2023/03/11 05:21:51;;;;;;;4.77;1.40;;;;;;;-0.50;100.00;99731.47;4949779;28;20295;-80
2023/03/11 05:24:17;;;;;;;3.23;1.70;;;;;;;-0.52;100.00;99739.34;4955054;28;20217;-81
2023/03/11 05:26:43;;;;;;;3.27;1.53;;;;;;;-0.53;100.00;99740.25;4952084;28;20241;-80
2023/03/11 05:29:10;;;;;;;4.50;1.73;;;;;;;-0.53;100.00;99736.78;4952724;28;20204;-81
2023/03/11 05:31:37;;;;;;;4.37;1.90;;;;;;;-0.54;100.00;99750.81;4951706;28;20210;-82
2023/03/11 05:34:05;;;;;;;3.53;1.50;;;;;;;-0.52;100.00;99743.72;4956110;28;20296;-82
2023/03/11 05:36:31;;;;;;;4.80;1.70;;;;;;;-0.52;100.00;99759.44;4954905;28;20229;-82
2023/03/11 05:38:58;;;;;;;6.47;2.53;;;;;;;-0.53;100.00;99753.34;4955608;28;20209;-80
2023/03/11 05:41:25;;;;;;;2.80;1.60;;;;;;;-0.53;100.00;99765.56;4959130;28;20212;-82
2023/03/11 05:43:51;;;;;;;4.80;2.10;;;;;;;-0.52;100.00;99760.28;4949618;28;20209;-80
2023/03/11 05:46:18;;;;;;;5.13;1.70;;;;;;;-0.52;100.00;99757.66;4952143;28;20247;-81
2023/03/11 05:48:45;;;;;;;5.13;1.63;;;;;;;-0.49;100.00;99764.56;4959890;28;20208;-81
2023/03/11 05:51:13;;;;;;;5.50;1.70;;;;;;;-0.50;100.00;99755.00;4958965;28;20205;-81
2023/03/11 05:53:46;;;;;;;3.73;1.67;;;;;;;-0.48;100.00;99756.66;4964289;28;20213;-81
2023/03/11 05:56:14;;;;;;;3.97;1.57;;;;;;;-0.44;100.00;99757.44;4959289;28;20228;-81
2023/03/11 05:58:40;;;;;;;4.90;1.53;;;;;;;-0.44;100.00;99758.28;4955367;28;20217;-80
2023/03/11 06:01:09;;;;;;;5.00;1.73;;;;;;;-0.42;100.00;99766.94;4955432;28;20216;-81
2023/03/11 06:03:35;;;;;;;4.07;1.67;;;;;;;-0.41;100.00;99770.41;4956275;28;20213;-80
2023/03/11 06:06:09;;;;;;;3.13;1.50;;;;;;;-0.40;100.00;99774.75;4952496;28;20208;-80
2023/03/11 06:08:37;;;;;;;3.07;1.20;;;;;;;-0.39;100.00;99782.53;4957330;28;20197;-81
2023/03/11 06:11:06;;;;;;;5.43;1.80;;;;;;;-0.38;100.00;99786.88;4952974;28;20208;-81
2023/03/11 06:13:33;;;;;;;4.37;1.60;;;;;;;-0.37;100.00;99790.34;4952873;28;20213;-80
2023/03/11 06:15:59;;;;;;;5.73;1.50;;;;;;;-0.36;100.00;99797.28;4952606;28;20212;-81
2023/03/11 06:18:26;;;;;;;4.17;1.30;;;;;;;-0.35;100.00;99793.72;4950437;29;20209;-81
2023/03/11 06:20:53;;;;;;;8.50;1.77;;;;;;;-0.34;100.00;99811.16;4953209;28;20280;-81
2023/03/11 06:23:19;;;;;;;4.30;1.23;;;;;;;-0.35;100.00;99806.81;4953276;28;20209;-81
2023/03/11 06:25:56;;;;;;;6.10;1.07;;;;;;;-0.37;100.00;99811.28;4953422;28;20216;-80
2023/03/11 06:28:23;;;;;;;4.03;1.10;;;;;;;-0.37;100.00;99816.50;4952125;28;20204;-80
2023/03/11 06:30:49;;;;;;;4.53;1.40;;;;;;;-0.40;100.00;99822.69;4952715;28;20679;-80
2023/03/11 06:33:15;;;;;;;4.20;1.00;;;;;;;-0.42;100.00;99826.25;4952842;28;20235;-81
2023/03/11 06:35:42;;;;;;;3.63;1.27;;;;;;;-0.44;100.00;99825.44;4951235;28;20201;-81
2023/03/11 06:38:09;;;;;;;3.40;1.20;;;;;;;-0.45;100.00;99829.81;4953852;28;20221;-81
2023/03/11 06:40:36;;;;;;;2.13;1.00;;;;;;;-0.45;100.00;99836.81;4953508;28;20219;-80
2023/03/11 06:43:04;;;;;;;2.97;1.23;;;;;;;-0.46;99.40;99850.78;4954981;28;20292;-80
2023/03/11 06:45:30;;;;;;;2.50;1.10;;;;;;;-0.46;99.13;99840.31;4953963;28;20209;-82
2023/03/11 06:47:57;;;;;;;4.97;1.00;;;;;;;-0.43;98.78;99858.53;4954105;28;20244;-80
2023/03/11 06:50:24;;;;;;;2.70;1.10;;;;;;;-0.38;98.90;99865.34;4953225;28;20213;-80
2023/03/11 06:52:51;;;;;;;3.97;1.20;;;;;;;-0.30;98.73;99864.22;4950686;28;20271;-80
2023/03/11 06:55:17;;;;;;;4.00;1.03;;;;;;;-0.25;98.47;99857.09;4954868;28;20220;-80
2023/03/11 06:57:44;;;;;;;1.87;1.03;;;;;;;-0.23;98.52;99866.63;4955947;28;20727;-81
2023/03/11 07:00:14;;;;;;;3.63;1.03;;;;;;;-0.21;98.25;99863.97;4958003;28;20212;-81
2023/03/11 07:02:40;;;;;;;3.90;1.10;;;;;;;-0.17;98.08;99876.88;4951998;28;20275;-81
2023/03/11 07:05:07;;;;;;;4.27;1.27;;;;;;;-0.14;98.03;99879.41;4950842;28;20209;-80
2023/03/11 07:07:33;;;;;;;5.27;1.30;;;;;;;-0.12;97.63;99867.13;4954940;28;20321;-81
2023/03/11 07:10:00;;;;;;;4.27;1.03;;;;;;;-0.06;97.46;99885.25;4955316;28;20209;-80
2023/03/11 07:12:26;;;;;;;3.97;1.20;;;;;;;-0.03;97.71;99886.91;4959918;28;20205;-81
2023/03/11 07:14:55;;;;;;;4.47;1.73;;;;;;;-0.01;96.87;99896.44;4952892;28;20206;-81
2023/03/11 07:17:24;;;;;;;3.07;0.97;;;;;;;0.01;97.12;99904.22;4954552;28;20268;-80
2023/03/11 07:19:50;;;;;;;7.33;1.67;;;;;;;0.04;96.93;99911.97;4951510;28;20689;-81
2023/03/11 07:22:17;;;;;;;3.67;1.10;;;;;;;0.04;96.84;99914.59;4955431;28;20646;-81
2023/03/11 07:24:46;;;;;;;3.87;1.30;;;;;;;0.05;96.57;99912.84;4957913;28;20209;-81
2023/03/11 07:27:12;;;;;;;2.67;1.17;;;;;;;0.06;96.23;99933.72;4956001;28;20241;-80
2023/03/11 07:29:39;;;;;;;4.97;1.30;;;;;;;0.07;96.45;99934.59;4953353;28;20205;-80
2023/03/11 07:32:07;;;;;;;1.93;1.27;;;;;;;0.09;95.89;99945.88;4955691;28;20223;-80
2023/03/11 07:34:35;;;;;;;1.80;0.90;;;;;;;0.09;95.99;99944.09;4954700;28;20209;-80
2023/03/11 07:37:02;;;;;;;2.93;0.90;;;;;;;0.09;95.88;99958.97;4962639;28;20278;-80
2023/03/11 07:39:28;;;;;;;4.67;1.20;;;;;;;0.09;95.48;99956.34;4952623;28;20216;-81
2023/03/11 07:41:55;;;;;;;5.03;1.37;;;;;;;0.12;95.36;99969.34;4950782;28;20220;-81
2023/03/11 07:44:21;;;;;;;2.30;1.17;;;;;;;0.16;95.18;99957.88;4957102;28;20211;-80
2023/03/11 07:46:47;;;;;;;6.37;1.40;;;;;;;0.21;95.18;99969.03;4956991;28;20321;-80
2023/03/11 07:49:14;;;;;;;3.30;1.50;;;;;;;0.24;94.88;99976.78;4952549;28;20696;-80
2023/03/11 07:51:42;;;;;;;2.60;1.30;;;;;;;0.25;94.63;99976.75;4959203;28;20220;-81
2023/03/11 07:54:11;;;;;;;7.17;2.07;;;;;;;0.24;94.12;99977.66;4959459;28;20209;-80
2023/03/11 07:56:38;;;;;;;3.23;1.20;;;;;;;0.21;94.03;99982.97;4953961;28;20236;-81
2023/03/11 07:59:05;;;;;;;5.77;1.17;;;;;;;0.19;93.64;99983.94;4944753;28;20220;-81
2023/03/11 08:01:35;;;;;;;2.73;1.43;;;;;;;0.20;93.50;99996.13;4951199;28;20212;-81
2023/03/11 08:04:03;;;;;;;5.43;1.43;;;;;;;0.27;93.56;99998.50;4949520;28;20220;-81
2023/03/11 08:06:31;;;;;;;4.53;1.20;;;;;;;0.41;93.65;100000.69;4960273;28;20225;-81
2023/03/11 08:09:08;;;;;;;5.23;1.33;;;;;;;0.50;93.68;100004.78;4953179;28;20221;-81
2023/03/11 08:11:35;;;;;;;2.33;1.00;;;;;;;0.55;93.45;100003.69;4958537;28;20578;-82
2023/03/11 08:14:02;;;;;;;3.60;1.10;;;;;;;0.59;93.07;100009.72;4961979;28;20239;-81
2023/03/11 08:16:29;;;;;;;4.37;1.43;;;;;;;0.59;92.77;100014.94;4956781;28;20252;-81
2023/03/11 08:18:56;;;;;;;6.00;1.40;;;;;;;0.58;92.52;100027.19;4955707;28;20221;-81
2023/03/11 08:21:25;;;;;;;2.43;1.23;;;;;;;0.57;92.31;100025.47;4954278;28;20213;-80
2023/03/11 08:23:52;;;;;;;5.43;1.50;;;;;;;0.59;92.06;100036.75;4950306;28;20273;-80
2023/03/11 08:26:21;;;;;;;2.57;1.13;;;;;;;0.60;91.73;100037.63;4947573;28;20228;-81
2023/03/11 08:28:49;;;;;;;5.63;1.50;;;;;;;0.58;91.58;100049.91;4953845;28;20255;-80
2023/03/11 08:31:17;;;;;;;4.90;1.40;;;;;;;0.53;91.24;100050.09;4946822;28;20206;-81
2023/03/11 08:33:44;;;;;;;6.13;1.07;;;;;;;0.57;90.90;100053.44;4946850;28;20240;-81
2023/03/11 08:36:11;;;;;;;5.50;1.60;;;;;;;0.68;91.43;100057.44;4949159;28;20213;-81
2023/03/11 08:38:38;;;;;;;4.87;1.47;;;;;;;0.83;91.73;100060.47;4951354;28;20219;-81
2023/03/11 08:41:05;;;;;;;3.13;1.40;;;;;;;0.98;91.75;100059.97;4962924;28;20678;-80
2023/03/11 08:43:32;;;;;;;1.40;0.90;;;;;;;1.13;91.15;100064.69;4951400;28;20220;-80
2023/03/11 08:46:00;;;;;;;3.63;1.60;;;;;;;1.22;90.82;100071.38;4953505;28;20212;-81
2023/03/11 08:48:27;;;;;;;3.83;1.33;;;;;;;1.33;90.90;100071.88;4951874;28;20251;-81
2023/03/11 08:50:53;;;;;;;3.80;1.33;;;;;;;1.46;90.78;100082.78;4951650;28;20211;-82
2023/03/11 08:53:20;;;;;;;4.40;1.30;;;;;;;1.57;89.83;100081.50;4957202;28;20219;-81
2023/03/11 08:55:47;;;;;;;4.03;1.70;;;;;;;1.67;89.62;100084.63;4951617;28;20213;-81
2023/03/11 08:58:13;;;;;;;3.37;1.30;;;;;;;1.80;89.82;100093.78;4943404;28;20228;-81
2023/03/11 09:00:41;;;;;;;5.57;1.30;;;;;;;1.90;88.53;100094.31;4949703;28;20205;-81
2023/03/11 09:03:08;;;;;;;2.70;1.40;;;;;;;1.97;87.41;100099.28;4956374;28;20214;-81
2023/03/11 09:05:35;;;;;;;3.97;1.43;;;;;;;2.04;86.63;100099.91;4957589;28;20216;-82
2023/03/11 09:08:02;;;;;;;2.83;1.23;;;;;;;2.12;86.64;100111.00;4956570;28;20236;-82
2023/03/11 09:10:29;;;;;;;5.50;1.67;;;;;;;2.22;85.63;100108.88;4945066;28;20205;-81
2023/03/11 09:12:56;;;;;;;3.80;1.40;;;;;;;2.30;85.09;100114.72;4955400;28;20209;-82
2023/03/11 09:15:22;;;;;;;3.53;1.60;;;;;;;2.38;84.42;100112.63;4953186;28;20678;-81
2023/03/11 09:17:50;;;;;;;5.10;2.03;;;;;;;2.47;84.82;100116.69;4958446;28;20228;-81
2023/03/11 09:20:17;;;;;;;2.03;1.40;;;;;;;2.52;84.13;100118.19;4956333;28;20236;-81
2023/03/11 09:22:43;;;;;;;5.20;1.47;;;;;;;2.59;83.50;100124.94;4950920;28;20214;-81
2023/03/11 09:25:12;;;;;;;3.60;1.30;;;;;;;2.68;83.11;100124.59;4947427;28;20293;-81
2023/03/11 09:27:40;;;;;;;2.87;1.20;;;;;;;2.71;82.32;100124.44;4949697;28;20237;-81
2023/03/11 09:30:08;;;;;;;3.37;1.30;;;;;;;2.73;82.04;100133.13;4957116;28;20204;-82
2023/03/11 09:32:34;;;;;;;3.10;1.50;;;;;;;2.75;81.30;100126.06;4951374;28;20209;-81
2023/03/11 09:35:02;;;;;;;4.83;1.40;;;;;;;2.77;81.03;100131.25;4947836;28;20219;-81
2023/03/11 09:37:29;;;;;;;4.20;1.60;;;;;;;2.83;80.86;100127.53;4954967;28;20220;-82
2023/03/11 09:39:56;;;;;;;2.20;1.10;;;;;;;2.87;80.62;100134.34;4947857;28;20209;-81
2023/03/11 09:42:31;;;;;;;2.10;1.00;;;;;;;2.89;80.19;100133.38;4952067;28;20220;-81
2023/03/11 09:45:03;;;;;;;2.83;1.40;;;;;;;2.90;80.06;100140.34;4953166;28;20227;-81
2023/03/11 09:47:38;;;;;;;2.97;1.30;;;;;;;2.94;79.84;100147.22;4952144;28;20715;-81
2023/03/11 09:50:20;;;;;;;1.77;1.23;;;;;;;2.90;78.53;100152.66;4950120;28;20201;-81
2023/03/11 09:52:56;;;;;;;3.37;1.60;;;;;;;2.78;78.77;100160.13;4946675;29;20198;-81
2023/03/11 09:55:36;;;;;;;5.70;1.40;;;;;;;2.71;77.80;100157.78;4945302;28;20205;-81
2023/03/11 09:58:11;;;;;;;4.37;1.47;;;;;;;2.70;78.68;100162.19;4952374;28;20220;-81
2023/03/11 10:00:37;;;;;;;2.60;1.40;;;;;;;2.77;79.31;100170.69;4946198;28;20211;-81
2023/03/11 10:03:11;;;;;;;3.53;1.40;;;;;;;2.83;79.06;100166.97;4950540;28;20217;-82
2023/03/11 10:05:41;;;;;;;3.00;1.30;;;;;;;2.81;78.14;100161.78;4954604;28;20200;-82
2023/03/11 10:08:16;;;;;;;4.83;1.70;;;;;;;2.79;78.47;100182.00;4952912;28;20610;-82
2023/03/11 10:10:50;;;;;;;4.30;2.70;;;;;;;2.78;77.97;100168.00;4949481;28;20208;-82
2023/03/11 10:13:23;;;;;;;3.23;2.00;;;;;;;2.74;78.30;100176.94;4956300;28;20207;-82
2023/03/11 10:15:56;;;;;;;3.70;1.83;;;;;;;2.70;78.42;100174.47;4952487;28;20713;-81
2023/03/11 10:18:38;;;;;;;4.13;1.63;;;;;;;2.66;77.65;100172.91;4946036;28;20209;-81
2023/03/11 10:21:15;;;;;;;2.93;1.40;;;;;;;2.63;78.45;100173.88;4946111;28;20703;-82
2023/03/11 10:23:57;;;;;;;3.57;1.40;;;;;;;2.60;78.74;100176.59;4948555;28;20208;-82
2023/03/11 10:26:31;;;;;;;11.87;5.87;;;;;;;2.57;78.09;100181.97;4945674;28;20623;-82
2023/03/11 10:29:08;;;;;;;4.00;3.53;;;;;;;2.53;77.93;100174.25;4954859;28;20228;-82
2023/03/11 10:31:39;;;;;;;5.57;2.30;;;;;;;2.51;77.79;100174.31;4957149;28;20243;-83
2023/03/11 10:34:14;;;;;;;5.10;2.70;;;;;;;2.49;78.11;100184.06;4957864;28;20213;-83
2023/03/11 10:36:50;;;;;;;2.63;1.53;;;;;;;2.47;78.06;100177.13;4952393;28;20228;-83
2023/03/11 10:39:17;;;;;;;4.93;1.80;;;;;;;2.43;78.13;100173.75;4957871;28;20193;-83
2023/03/11 10:41:49;;;;;;;4.97;1.60;;;;;;;2.42;77.54;100178.16;4955255;29;20217;-83
2023/03/11 10:44:20;;;;;;;4.07;1.57;;;;;;;2.43;78.03;100173.75;4953139;28;20247;-81
2023/03/11 10:46:47;;;;;;;2.47;1.37;;;;;;;2.41;77.73;100180.84;4952359;28;20224;-82
2023/03/11 10:49:15;;;;;;;4.43;1.30;;;;;;;2.41;78.52;100186.09;4950311;28;20224;-82
2023/03/11 10:51:46;;;;;;;2.80;1.30;;;;;;;2.43;78.34;100184.28;4955729;28;20253;-82
2023/03/11 10:54:26;;;;;;;5.13;1.40;;;;;;;2.46;78.39;100189.41;4954936;28;20292;-82
2023/03/11 10:57:01;;;;;;;5.07;1.20;;;;;;;2.48;78.52;100195.47;4952182;28;20229;-82
2023/03/11 10:59:30;;;;;;;4.37;1.37;;;;;;;2.49;78.27;100191.94;4953741;28;20543;-82
2023/03/11 11:02:03;;;;;;;7.00;1.70;;;;;;;2.50;77.73;100205.94;4949359;28;20205;-82
2023/03/11 11:04:36;;;;;;;2.60;1.90;;;;;;;2.50;77.39;100192.78;4952056;28;20766;-83
2023/03/11 11:07:27;;;;;;;5.20;1.93;;;;;;;2.49;77.20;100202.44;4949817;28;20225;-81
2023/03/11 11:10:14;;;;;;;4.03;1.47;;;;;;;2.49;77.54;100201.59;4958514;28;20200;-83
2023/03/11 11:12:53;;;;;;;2.60;1.57;;;;;;;2.48;77.66;100206.00;4956194;28;20197;-83
2023/03/11 11:15:29;;;;;;;2.13;1.57;;;;;;;2.47;77.25;100209.53;4955492;28;20212;-84
2023/03/11 11:17:59;;;;;;;3.60;1.53;;;;;;;2.43;76.47;100205.28;4952341;28;20232;-83
2023/03/11 11:20:28;;;;;;;3.30;1.43;;;;;;;2.43;76.72;100207.94;4955282;28;20213;-84
2023/03/11 11:22:57;;;;;;;2.90;1.33;;;;;;;2.45;76.24;100213.97;4955749;28;20211;-83
2023/03/11 11:25:26;;;;;;;4.30;1.27;;;;;;;2.49;76.95;100201.59;4954520;28;20209;-83
2023/03/11 11:27:54;;;;;;;4.20;1.70;;;;;;;2.53;76.85;100211.06;4953401;29;20239;-84
2023/03/11 11:30:22;;;;;;;3.40;1.20;;;;;;;2.59;77.16;100202.94;4952921;28;20228;-84
2023/03/11 11:32:52;;;;;;;2.77;1.70;;;;;;;2.64;77.21;100201.88;4954464;28;20213;-82
2023/03/11 11:35:20;;;;;;;3.63;1.33;;;;;;;2.68;76.87;100216.63;4947176;28;20205;-84